Portada
METAR-TAF:

METAR-TAF

Aeropuertos :

Angulema, Francia

latitud: 45-43-46N, longitud: 00-13-08E, altitud: 132 m

METAR: falta

Hora: 12:25 (11:25 UTC)

Pronóstico

El informe se hizo hace 21 horas y 26 minutos, a las 13:59 UTC
Pronóstico válido del 20 a las 13 UTC al 21 a las 12 UTC
Viento 12 kt del noroeste
Visibilidad 10 km o más
Cielo nuboso a una altura de 2500 ft
Temporalmente
del 20 a las 13 UTC al 21 a las 04 UTC
Visibilidad: 4000 m
Cielo nuboso a una altura de 1000 ft
lluvia ligera
Evolucionando progresivamente
del 21 a las 02 UTC al 21 a las 04 UTC
Viento 12 kt del noreste
Evolucionando progresivamente
del 21 a las 10 UTC al 21 a las 12 UTC
Visibilidad 10 km o más
sin nubes por debajo de 1500 m y sin presencia de cumulonimbus.

TAF: LFBU 201359Z 2013/2112 32012KT 9999 BKN025 TEMPO 2013/2104 4000 -RA BKN010 BECMG 2102/2104 05012KT BECMG 2110/2112 CAVOK

Observaciones y pronósticos meteorológicos de más de 4000 aeropuertos (mensajes METAR y TAF).

Los puntos amarillos y rojos representan las estaciones disponibles.

Ponga el ratón en el punto deseado para ver el nombre de la estación.

Haga clic para ver las observaciones y los pronósticos meteorológicos.

Para cambiar el mapa : haga clic en los botones verdes con una cruz de color negro para hacer un zoom, en el botón verde con un guión para alejar o en las flechas verdes para mapas adyacentes.


METAR-TAF: